Chiclayo, Peru
Current Conditions -  °F | °C
As of 10:00 AM on Saturday 20 Dec 2014 (Local Time) from SPHI Reporting Station
Broken Clouds Broken Clouds  
Wind Chill: 73°   Ceiling: 2200
Heat Index: 73°   Visibility: 6mi
Dew Point: 63°   Wind: 13mph
Humidity: 69%   Direction: 180°S
Pressure: 29.94"   Gusts: NA
Location:  6.76°S, 79.84°W
Report Text: SPHI 201500Z 18011KT 140V200 9999 BKN022 23/17 Q1014 RMK PP000
Loading
Personal Weather Stations






























Interactive Weather Map New forecast layout! Learn more

10-Day Weather Forecast

Advertisements
Track Severe Weather on mobile